createdAt,value
2018-04-28T00:00:13.330Z,3.27
2018-04-28T00:02:41.335Z,5.60
2018-04-28T00:05:09.367Z,4.77
2018-04-28T00:07:38.135Z,7.13
2018-04-28T00:10:06.159Z,12.23
2018-04-28T00:12:34.112Z,6.27
2018-04-28T00:15:02.119Z,6.90
2018-04-28T00:17:42.001Z,4.37
2018-04-28T00:20:11.498Z,5.30
2018-04-28T00:22:41.387Z,10.97
2018-04-28T00:25:28.151Z,10.90
2018-04-28T00:28:03.075Z,29.13
2018-04-28T00:30:46.872Z,26.93
2018-04-28T00:33:19.641Z,10.20
2018-04-28T00:35:47.648Z,9.80
2018-04-28T00:38:15.694Z,4.73
2018-04-28T00:40:46.304Z,4.53
2018-04-28T00:43:15.068Z,5.67
2018-04-28T00:45:46.027Z,8.23
2018-04-28T00:48:15.610Z,11.30
2018-04-28T00:50:44.429Z,7.70
2018-04-28T00:53:13.199Z,23.17
2018-04-28T00:55:41.180Z,8.97
2018-04-28T00:58:16.009Z,4.53
2018-04-28T01:00:59.703Z,6.07
2018-04-28T01:03:34.830Z,9.93
2018-04-28T01:06:02.840Z,4.10
2018-04-28T01:08:30.877Z,4.00
2018-04-28T01:11:02.466Z,3.50
2018-04-28T01:13:36.184Z,3.77
2018-04-28T01:16:04.205Z,4.07
2018-04-28T01:18:32.218Z,3.57
2018-04-28T01:21:03.131Z,4.03
2018-04-28T01:23:39.014Z,3.97
2018-04-28T01:29:17.667Z,4.30
2018-04-28T01:31:46.202Z,3.90
2018-04-28T01:34:26.736Z,3.93
2018-04-28T01:37:00.616Z,4.07
2018-04-28T01:39:38.461Z,3.33
2018-04-28T01:42:28.228Z,3.73
2018-04-28T01:45:08.562Z,3.90
2018-04-28T01:47:47.200Z,3.50
2018-04-28T01:50:15.925Z,3.50
2018-04-28T01:53:02.835Z,3.60
2018-04-28T01:55:34.762Z,3.90
2018-04-28T01:58:10.535Z,4.47
2018-04-28T02:00:41.144Z,4.53
2018-04-28T02:03:14.601Z,4.87
2018-04-28T02:05:49.767Z,4.70
2018-04-28T02:08:17.719Z,4.70
2018-04-28T02:10:50.952Z,4.20
2018-04-28T02:13:20.600Z,4.30
2018-04-28T02:15:48.526Z,4.70
2018-04-28T02:18:35.214Z,3.90
2018-04-28T02:21:14.843Z,4.20
2018-04-28T02:23:50.417Z,9.37
2018-04-28T02:26:25.251Z,8.80
2018-04-28T02:28:58.924Z,5.60
2018-04-28T02:31:28.800Z,4.77
2018-04-28T02:34:08.412Z,3.90
2018-04-28T02:36:55.634Z,4.33
2018-04-28T02:39:24.330Z,4.17
2018-04-28T02:45:07.809Z,4.17
2018-04-28T02:47:45.609Z,4.20
2018-04-28T02:50:14.469Z,4.53
2018-04-28T02:52:46.260Z,4.73
2018-04-28T02:55:20.200Z,3.90
2018-04-28T03:03:27.683Z,4.00
2018-04-28T03:05:56.403Z,4.30
2018-04-28T03:08:32.218Z,3.50
2018-04-28T03:11:01.736Z,3.73
2018-04-28T03:13:30.559Z,4.00
2018-04-28T03:15:59.340Z,3.87
2018-04-28T03:18:35.856Z,7.80
2018-04-28T03:21:04.655Z,4.90
2018-04-28T03:23:36.212Z,5.13
2018-04-28T03:26:14.878Z,4.90
2018-04-28T03:28:46.631Z,5.17
2018-04-28T03:31:22.400Z,6.10
2018-04-28T03:33:56.228Z,6.13
2018-04-28T03:36:25.045Z,5.40
2018-04-28T03:38:59.028Z,5.20
2018-04-28T03:41:29.880Z,4.63
2018-04-28T03:44:07.752Z,4.80
2018-04-28T03:46:37.663Z,5.07
2018-04-28T03:52:16.366Z,7.50
2018-04-28T03:54:46.019Z,7.37
2018-04-28T03:57:34.699Z,5.03
2018-04-28T04:00:14.339Z,5.10
2018-04-28T04:02:54.129Z,8.63
2018-04-28T04:08:51.386Z,5.17
2018-04-28T04:14:37.249Z,5.97
2018-04-28T04:17:16.907Z,5.23
2018-04-28T04:23:08.029Z,5.83
2018-04-28T04:25:43.376Z,5.30
2018-04-28T04:28:44.841Z,5.83
2018-04-28T04:31:24.787Z,5.60
2018-04-28T04:34:00.070Z,4.33
2018-04-28T04:39:43.905Z,5.17
2018-04-28T04:42:17.700Z,5.63
2018-04-28T04:44:54.295Z,5.47
2018-04-28T04:50:35.069Z,6.03
2018-04-28T04:56:31.398Z,6.00
2018-04-28T04:59:11.095Z,4.80
2018-04-28T05:01:54.801Z,5.40
2018-04-28T05:04:30.649Z,5.83
2018-04-28T05:07:05.986Z,5.70
2018-04-28T05:13:09.479Z,4.70
2018-04-28T05:15:38.160Z,5.40
2018-04-28T05:18:18.023Z,5.20
2018-04-28T05:20:48.668Z,4.90
2018-04-28T05:26:37.548Z,4.13
2018-04-28T05:29:23.140Z,3.67
2018-04-28T05:32:07.472Z,4.77
2018-04-28T05:38:13.058Z,4.30
2018-04-28T05:40:53.206Z,4.90
2018-04-28T05:43:32.793Z,5.03
2018-04-28T05:46:12.620Z,4.43
2018-04-28T05:52:08.405Z,4.50
2018-04-28T05:54:57.801Z,5.17
2018-04-28T05:57:33.206Z,5.13
2018-04-28T06:03:40.528Z,4.27
2018-04-28T06:06:16.289Z,3.57
2018-04-28T06:12:25.611Z,3.67
2018-04-28T06:15:15.980Z,3.90
2018-04-28T06:20:47.302Z,3.80
2018-04-28T06:23:15.886Z,3.67
2018-04-28T06:25:43.848Z,3.77
2018-04-28T06:28:11.836Z,3.30
2018-04-28T06:30:39.799Z,3.00
2018-04-28T06:33:07.739Z,3.00
2018-04-28T06:35:36.512Z,3.37
2018-04-28T06:38:05.217Z,2.70
2018-04-28T06:40:33.184Z,3.07
2018-04-28T06:43:01.162Z,3.03
2018-04-28T06:45:29.099Z,3.90
2018-04-28T06:47:57.091Z,3.47
2018-04-28T06:50:25.168Z,3.60
2018-04-28T06:53:00.118Z,3.00
2018-04-28T06:55:28.379Z,3.17
2018-04-28T06:57:58.118Z,3.43
2018-04-28T07:00:26.204Z,3.00
2018-04-28T07:02:54.228Z,3.07
2018-04-28T07:05:23.082Z,3.30
2018-04-28T07:07:51.102Z,3.73
2018-04-28T07:10:26.170Z,3.20
2018-04-28T07:12:54.192Z,3.40
2018-04-28T07:15:22.233Z,3.53
2018-04-28T07:17:50.229Z,3.53
2018-04-28T07:20:18.243Z,3.43
2018-04-28T07:22:46.276Z,2.73
2018-04-28T07:25:14.369Z,3.67
2018-04-28T07:27:43.516Z,3.47
2018-04-28T07:30:11.540Z,3.47
2018-04-28T07:32:39.631Z,3.73
2018-04-28T07:35:07.615Z,3.13
2018-04-28T07:37:35.634Z,3.43
2018-04-28T07:40:03.614Z,2.97
2018-04-28T07:42:36.697Z,3.13
2018-04-28T07:45:04.734Z,2.70
2018-04-28T07:47:33.051Z,3.00
2018-04-28T07:50:01.130Z,2.50
2018-04-28T07:52:29.838Z,2.80
2018-04-28T07:54:59.331Z,3.00
2018-04-28T07:57:28.061Z,2.47
2018-04-28T07:59:56.747Z,2.93
2018-04-28T08:02:24.773Z,2.93
2018-04-28T08:04:53.093Z,3.73
2018-04-28T08:07:22.629Z,2.97
2018-04-28T08:09:50.814Z,3.10
2018-04-28T08:12:18.811Z,2.50
2018-04-28T08:14:46.785Z,2.67
2018-04-28T08:17:14.819Z,2.43
2018-04-28T08:19:42.862Z,2.80
2018-04-28T08:22:11.642Z,3.00
2018-04-28T08:24:39.687Z,3.13
2018-04-28T08:27:08.037Z,2.80
2018-04-28T08:29:35.893Z,2.50
2018-04-28T08:32:03.887Z,2.70
2018-04-28T08:34:31.949Z,2.50
2018-04-28T08:37:00.089Z,2.40
2018-04-28T08:39:28.971Z,2.50
2018-04-28T08:41:56.990Z,2.80
2018-04-28T08:44:25.107Z,2.67
2018-04-28T08:46:53.776Z,2.70
2018-04-28T08:49:30.849Z,2.27
2018-04-28T08:51:59.331Z,2.97
2018-04-28T08:54:27.780Z,2.70
2018-04-28T08:56:57.219Z,2.53
2018-04-28T08:59:36.929Z,2.63
2018-04-28T09:02:06.348Z,2.67
2018-04-28T09:04:34.771Z,3.03
2018-04-28T09:07:14.644Z,2.77
2018-04-28T09:09:43.289Z,2.80
2018-04-28T09:12:18.634Z,2.57
2018-04-28T09:14:47.241Z,2.60
2018-04-28T09:17:15.851Z,2.93
2018-04-28T09:19:44.498Z,2.87
2018-04-28T09:22:13.114Z,2.90
2018-04-28T09:24:41.732Z,2.90
2018-04-28T09:27:10.326Z,2.40
2018-04-28T09:29:39.735Z,2.50
2018-04-28T09:32:08.431Z,2.27
2018-04-28T09:34:37.897Z,2.63
2018-04-28T09:37:06.678Z,2.93
2018-04-28T09:39:35.306Z,3.20
2018-04-28T09:42:04.713Z,2.80
2018-04-28T09:44:33.558Z,2.30
2018-04-28T09:47:02.198Z,2.30
2018-04-28T09:49:31.566Z,3.23
2018-04-28T09:52:00.196Z,2.73
2018-04-28T09:54:28.809Z,2.80
2018-04-28T09:56:57.440Z,2.70
2018-04-28T09:59:26.063Z,2.10
2018-04-28T10:01:58.286Z,2.70
2018-04-28T10:04:26.906Z,2.73
2018-04-28T10:06:57.642Z,2.27
2018-04-28T10:09:27.044Z,2.63
2018-04-28T10:11:56.436Z,2.23
2018-04-28T10:14:25.089Z,2.17
2018-04-28T10:16:53.738Z,2.20
2018-04-28T10:19:22.412Z,1.90
2018-04-28T10:21:55.285Z,2.27
2018-04-28T10:24:23.892Z,1.90
2018-04-28T10:26:53.284Z,2.03
2018-04-28T10:29:21.899Z,2.00
2018-04-28T10:31:50.605Z,1.90
2018-04-28T10:34:19.195Z,2.03
2018-04-28T10:36:47.809Z,1.73
2018-04-28T10:39:16.423Z,2.07
2018-04-28T10:41:45.795Z,2.07
2018-04-28T10:44:14.422Z,1.87
2018-04-28T10:46:48.932Z,1.87
2018-04-28T10:49:17.566Z,2.27
2018-04-28T10:51:46.176Z,2.00
2018-04-28T10:54:14.823Z,1.70
2018-04-28T10:56:43.408Z,2.43
2018-04-28T10:59:13.136Z,1.70
2018-04-28T11:01:42.770Z,1.80
2018-04-28T11:04:12.395Z,2.10
2018-04-28T11:06:42.056Z,1.63
2018-04-28T11:09:11.708Z,1.80
2018-04-28T11:11:41.355Z,1.80
2018-04-28T11:14:10.981Z,2.10
2018-04-28T11:16:40.591Z,2.33
2018-04-28T11:19:09.428Z,1.70
2018-04-28T11:21:38.124Z,1.73
2018-04-28T11:24:06.608Z,2.43
2018-04-28T11:26:35.230Z,2.57
2018-04-28T11:29:05.719Z,1.90
2018-04-28T11:31:34.341Z,2.27
2018-04-28T11:34:02.941Z,2.37
2018-04-28T11:36:33.050Z,2.03
2018-04-28T11:39:02.284Z,2.30
2018-04-28T11:41:30.884Z,2.10
2018-04-28T11:43:59.535Z,2.27
2018-04-28T11:46:28.911Z,2.40
2018-04-28T11:48:57.535Z,2.03
2018-04-28T11:51:26.980Z,1.87
2018-04-28T11:53:55.571Z,2.30
2018-04-28T11:56:24.201Z,2.33
2018-04-28T11:58:52.847Z,2.10
2018-04-28T12:01:21.606Z,1.97
2018-04-28T12:03:50.214Z,2.10
2018-04-28T12:06:18.862Z,2.40
2018-04-28T12:08:48.228Z,2.23
2018-04-28T12:11:16.886Z,2.20
2018-04-28T12:13:45.529Z,2.27
2018-04-28T12:16:14.227Z,2.47
2018-04-28T12:18:42.874Z,2.63
2018-04-28T12:21:11.572Z,2.33
2018-04-28T12:23:47.708Z,2.20
2018-04-28T12:26:16.362Z,2.60
2018-04-28T12:28:45.786Z,1.90
2018-04-28T12:31:14.448Z,2.30
2018-04-28T12:33:43.835Z,2.63
2018-04-28T12:36:12.558Z,2.30
2018-04-28T12:38:41.186Z,2.73
2018-04-28T12:41:09.825Z,2.40
2018-04-28T12:43:41.265Z,1.90
2018-04-28T12:46:10.684Z,2.00
2018-04-28T12:48:40.029Z,2.10
2018-04-28T12:51:08.669Z,2.30
2018-04-28T12:53:37.390Z,2.57
2018-04-28T12:56:06.071Z,2.47
2018-04-28T12:58:45.965Z,2.13
2018-04-28T13:01:14.583Z,2.43
2018-04-28T13:03:44.020Z,1.83
2018-04-28T13:06:12.749Z,2.10
2018-04-28T13:08:41.408Z,1.90
2018-04-28T13:11:10.010Z,2.40
2018-04-28T13:13:39.850Z,1.87
2018-04-28T13:16:08.613Z,1.90
2018-04-28T13:18:37.318Z,2.17
2018-04-28T13:21:05.930Z,1.67
2018-04-28T13:23:34.559Z,1.93
2018-04-28T13:26:04.843Z,2.00
2018-04-28T13:28:33.477Z,2.47
2018-04-28T13:31:02.471Z,2.10
2018-04-28T13:33:31.065Z,2.43
2018-04-28T13:35:59.797Z,2.80
2018-04-28T13:38:28.398Z,2.37
2018-04-28T13:41:05.456Z,5.60
2018-04-28T13:43:34.062Z,2.37
2018-04-28T13:46:24.147Z,2.50
2018-04-28T13:48:54.194Z,1.90
2018-04-28T13:51:23.247Z,2.10
2018-04-28T13:53:51.871Z,2.00
2018-04-28T13:56:20.530Z,2.70
2018-04-28T13:58:49.421Z,1.93
2018-04-28T14:01:18.173Z,2.43
2018-04-28T14:03:46.765Z,2.60
2018-04-28T14:06:15.371Z,2.30
2018-04-28T14:08:44.032Z,2.30
2018-04-28T14:11:17.693Z,2.40
2018-04-28T14:13:47.089Z,2.10
2018-04-28T14:16:17.226Z,2.40
2018-04-28T14:18:58.241Z,2.90
2018-04-28T14:21:26.951Z,2.57
2018-04-28T14:23:55.334Z,4.93
2018-04-28T14:26:24.973Z,2.53
2018-04-28T14:28:53.332Z,1.97
2018-04-28T14:31:21.868Z,1.90
2018-04-28T14:33:51.191Z,2.20
2018-04-28T14:36:19.722Z,2.00
2018-04-28T14:38:48.296Z,2.20
2018-04-28T14:41:16.843Z,2.33
2018-04-28T14:43:46.883Z,2.47
2018-04-28T14:46:15.459Z,2.37
2018-04-28T14:48:44.182Z,2.10
2018-04-28T14:51:12.759Z,2.23
2018-04-28T14:53:41.290Z,2.70
2018-04-28T14:56:10.656Z,2.73
2018-04-28T14:58:39.259Z,2.50
2018-04-28T15:01:07.840Z,2.97
2018-04-28T15:03:36.404Z,3.10
2018-04-28T15:06:05.011Z,3.37
2018-04-28T15:08:33.864Z,3.10
2018-04-28T15:11:02.546Z,3.23
2018-04-28T15:13:31.675Z,3.70
2018-04-28T15:16:06.528Z,2.90
2018-04-28T15:18:35.157Z,2.33
2018-04-28T15:21:03.807Z,2.03
2018-04-28T15:23:39.883Z,2.60
2018-04-28T15:26:09.223Z,2.47
2018-04-28T15:28:37.953Z,1.83
2018-04-28T15:31:06.146Z,2.17
2018-04-28T15:33:35.540Z,1.97
2018-04-28T15:36:03.880Z,1.83
2018-04-28T15:38:32.730Z,2.10
2018-04-28T15:41:02.154Z,2.40
2018-04-28T15:43:30.771Z,2.40
2018-04-28T15:45:59.408Z,2.10
2018-04-28T15:48:28.884Z,2.57
2018-04-28T15:51:03.606Z,2.17
2018-04-28T15:53:33.469Z,2.50
2018-04-28T15:56:02.907Z,2.40
2018-04-28T15:58:31.540Z,2.10
2018-04-28T16:01:00.133Z,2.37
2018-04-28T16:03:28.796Z,2.00
2018-04-28T16:05:58.129Z,2.00
2018-04-28T16:08:27.554Z,1.93
2018-04-28T16:11:02.262Z,1.70
2018-04-28T16:13:31.669Z,2.33
2018-04-28T16:18:53.986Z,1.80
2018-04-28T16:21:35.890Z,2.37
2018-04-28T16:24:04.518Z,1.87
2018-04-28T16:26:33.121Z,2.00
2018-04-28T16:29:01.729Z,2.03
2018-04-28T16:31:31.908Z,1.90
2018-04-28T16:34:04.554Z,2.33
2018-04-28T16:36:35.219Z,2.27
2018-04-28T16:39:03.565Z,2.30
2018-04-28T16:41:34.329Z,1.50
2018-04-28T16:44:02.925Z,2.93
2018-04-28T16:46:31.558Z,3.17
2018-04-28T16:49:00.323Z,2.40
2018-04-28T16:51:28.960Z,2.40
2018-04-28T16:53:57.382Z,2.33
2018-04-28T16:56:51.307Z,2.00
2018-04-28T16:59:19.983Z,2.20
2018-04-28T17:01:48.651Z,2.70
2018-04-28T17:04:18.076Z,2.90
2018-04-28T17:06:46.615Z,1.90
2018-04-28T17:09:15.234Z,2.80
2018-04-28T17:11:43.859Z,2.57
2018-04-28T17:14:12.539Z,3.20
2018-04-28T17:16:41.200Z,4.67
2018-04-28T17:19:09.830Z,4.27
2018-04-28T17:21:38.470Z,2.70
2018-04-28T17:24:07.891Z,3.50
2018-04-28T17:26:36.502Z,2.77
2018-04-28T17:29:06.383Z,2.93
2018-04-28T17:31:36.930Z,1.97
2018-04-28T17:34:05.602Z,2.10
2018-04-28T17:36:36.394Z,2.20
2018-04-28T17:39:04.558Z,2.77
2018-04-28T17:41:35.352Z,2.23
2018-04-28T17:44:04.175Z,2.50
2018-04-28T17:46:32.903Z,3.80
2018-04-28T17:49:07.500Z,2.53
2018-04-28T17:51:36.116Z,5.47
2018-04-28T17:54:05.715Z,4.27
2018-04-28T17:56:34.386Z,5.97
2018-04-28T17:59:03.032Z,3.90
2018-04-28T18:01:33.626Z,2.53
2018-04-28T18:04:02.295Z,1.90
2018-04-28T18:06:31.868Z,2.73
2018-04-28T18:09:04.914Z,3.67
2018-04-28T18:14:49.465Z,4.77
2018-04-28T18:17:20.408Z,5.80
2018-04-28T18:20:00.966Z,4.87
2018-04-28T18:22:29.833Z,4.50
2018-04-28T18:25:00.554Z,4.53
2018-04-28T18:27:29.171Z,4.87
2018-04-28T18:30:00.023Z,4.57
2018-04-28T18:32:35.930Z,5.03
2018-04-28T18:35:06.599Z,4.87
2018-04-28T18:37:39.310Z,4.67
2018-04-28T18:40:08.091Z,3.80
2018-04-28T18:45:30.105Z,3.50
2018-04-28T18:48:00.536Z,3.60
2018-04-28T18:50:30.022Z,4.80
2018-04-28T18:53:03.031Z,4.27
2018-04-28T18:55:31.638Z,4.53
2018-04-28T18:58:00.404Z,4.67
2018-04-28T19:00:29.157Z,3.63
2018-04-28T19:03:01.396Z,3.43
2018-04-28T19:05:29.853Z,2.67
2018-04-28T19:07:59.338Z,3.07
2018-04-28T19:10:27.972Z,7.07
2018-04-28T19:12:57.347Z,3.77
2018-04-28T19:15:26.043Z,4.17
2018-04-28T19:17:55.414Z,4.57
2018-04-28T19:20:24.044Z,5.03
2018-04-28T19:22:53.451Z,3.20
2018-04-28T19:25:22.815Z,2.30
2018-04-28T19:27:51.523Z,2.27
2018-04-28T19:30:20.109Z,2.27
2018-04-28T19:32:48.754Z,2.60
2018-04-28T19:35:17.342Z,2.80
2018-04-28T19:37:47.038Z,3.80
2018-04-28T19:40:15.665Z,4.10
2018-04-28T19:42:44.586Z,4.57
2018-04-28T19:45:13.963Z,4.07
2018-04-28T19:47:42.598Z,3.37
2018-04-28T19:50:12.005Z,2.90
2018-04-28T19:52:41.378Z,3.13
2018-04-28T19:55:10.011Z,3.00
2018-04-28T19:57:38.806Z,2.97
2018-04-28T20:00:07.286Z,3.07
2018-04-28T20:02:35.721Z,3.37
2018-04-28T20:05:10.402Z,6.10
2018-04-28T20:07:39.039Z,7.00
2018-04-28T20:10:07.817Z,4.77
2018-04-28T20:12:36.574Z,3.50
2018-04-28T20:15:07.287Z,3.43
2018-04-28T20:17:35.936Z,4.00
2018-04-28T20:20:03.950Z,3.03
2018-04-28T20:22:45.888Z,3.30
2018-04-28T20:25:22.891Z,2.90
2018-04-28T20:28:11.585Z,2.60
2018-04-28T20:30:40.984Z,2.60
2018-04-28T20:33:10.348Z,3.90
2018-04-28T20:35:39.089Z,4.57
2018-04-28T20:38:07.852Z,4.47
2018-04-28T20:40:43.025Z,5.47
2018-04-28T20:43:11.913Z,3.83
2018-04-28T20:45:40.494Z,3.30
2018-04-28T20:48:09.129Z,2.87
2018-04-28T20:50:37.738Z,2.70
2018-04-28T20:53:06.409Z,3.23
2018-04-28T20:55:37.770Z,2.03
2018-04-28T20:58:10.565Z,2.37
2018-04-28T21:00:39.179Z,2.40
2018-04-28T21:03:09.758Z,2.77
2018-04-28T21:05:38.427Z,2.67
2018-04-28T21:08:07.072Z,2.50
2018-04-28T21:10:36.487Z,2.90
2018-04-28T21:13:12.130Z,2.50
2018-04-28T21:15:41.531Z,3.00
2018-04-28T21:18:10.384Z,2.73
2018-04-28T21:20:56.714Z,2.87
2018-04-28T21:23:45.583Z,2.90
2018-04-28T21:26:14.235Z,2.97
2018-04-28T21:28:42.862Z,3.20
2018-04-28T21:31:12.262Z,2.70
2018-04-28T21:33:51.876Z,3.00
2018-04-28T21:36:20.498Z,3.17
2018-04-28T21:39:07.652Z,3.03
2018-04-28T21:41:36.317Z,2.60
2018-04-28T21:47:03.900Z,3.10
2018-04-28T21:49:33.666Z,3.50
2018-04-28T21:52:12.606Z,3.20
2018-04-28T21:54:41.291Z,3.00
2018-04-28T21:57:09.903Z,3.97
2018-04-28T21:59:38.510Z,3.60
2018-04-28T22:02:07.914Z,3.47
2018-04-28T22:04:37.311Z,3.40
2018-04-28T22:07:05.897Z,3.20
2018-04-28T22:09:34.566Z,3.57
2018-04-28T22:12:03.245Z,3.60
2018-04-28T22:14:32.641Z,3.67
2018-04-28T22:17:01.265Z,3.93
2018-04-28T22:19:30.370Z,3.40
2018-04-28T22:21:59.784Z,3.50
2018-04-28T22:24:29.147Z,3.87
2018-04-28T22:26:57.837Z,3.63
2018-04-28T22:29:43.953Z,4.00
2018-04-28T22:32:19.934Z,3.90
2018-04-28T22:34:48.579Z,3.50
2018-04-28T22:37:17.194Z,3.27
2018-04-28T22:39:46.607Z,3.07
2018-04-28T22:42:15.800Z,3.60
2018-04-28T22:44:49.001Z,3.10
2018-04-28T22:47:34.453Z,3.63
2018-04-28T22:50:08.183Z,2.93
2018-04-28T22:52:36.833Z,2.83
2018-04-28T22:55:04.860Z,3.17
2018-04-28T22:57:39.375Z,4.13
2018-04-28T23:00:08.136Z,4.40
2018-04-28T23:02:36.736Z,3.50
2018-04-28T23:05:05.361Z,3.10
2018-04-28T23:07:33.963Z,3.17
2018-04-28T23:10:02.606Z,3.33
2018-04-28T23:12:31.262Z,3.20
2018-04-28T23:14:59.877Z,3.20
2018-04-28T23:17:28.594Z,3.73
2018-04-28T23:19:57.938Z,3.60
2018-04-28T23:22:27.589Z,3.97
2018-04-28T23:25:14.830Z,3.83
2018-04-28T23:27:43.481Z,3.97
2018-04-28T23:30:12.102Z,3.63
2018-04-28T23:32:40.744Z,4.17
2018-04-28T23:35:09.419Z,3.30
2018-04-28T23:37:38.060Z,3.57
2018-04-28T23:40:07.467Z,3.40
2018-04-28T23:42:36.861Z,3.20
2018-04-28T23:45:06.255Z,3.10
2018-04-28T23:47:34.943Z,3.40
2018-04-28T23:50:03.607Z,2.90
2018-04-28T23:52:32.019Z,3.40
2018-04-28T23:55:01.457Z,2.97
2018-04-28T23:57:30.073Z,3.07
2018-04-28T23:59:58.635Z,3.37
